sensor_id;sensor_type;location;lat;lon;timestamp;pressure;altitude;pressure_sealevel;temperature;humidity
75359;BME280;64046;51.978;5.934;2022-11-13T00:00:08;102642.25;;;14.22;84.63
75359;BME280;64046;51.978;5.934;2022-11-13T00:02:56;102640.34;;;13.97;85.32
75359;BME280;64046;51.978;5.934;2022-11-13T00:05:44;102639.34;;;14.01;85.02
75359;BME280;64046;51.978;5.934;2022-11-13T00:08:31;102640.97;;;14.05;84.77
75359;BME280;64046;51.978;5.934;2022-11-13T00:11:20;102639.22;;;14.06;84.46
75359;BME280;64046;51.978;5.934;2022-11-13T00:14:07;102640.06;;;14.06;84.67
75359;BME280;64046;51.978;5.934;2022-11-13T00:16:58;102637.75;;;14.25;83.92
75359;BME280;64046;51.978;5.934;2022-11-13T00:19:46;102625.75;;;14.15;84.03
75359;BME280;64046;51.978;5.934;2022-11-13T00:22:33;102626.09;;;14.04;84.46
75359;BME280;64046;51.978;5.934;2022-11-13T00:25:21;102630.63;;;13.99;84.63
75359;BME280;64046;51.978;5.934;2022-11-13T00:28:08;102625.44;;;13.96;84.84
75359;BME280;64046;51.978;5.934;2022-11-13T00:30:58;102630.28;;;14.11;84.76
75359;BME280;64046;51.978;5.934;2022-11-13T00:33:49;102625.84;;;14.12;84.67
75359;BME280;64046;51.978;5.934;2022-11-13T00:36:37;102624.63;;;13.94;85.01
75359;BME280;64046;51.978;5.934;2022-11-13T00:39:24;102609.69;;;13.94;84.94
75359;BME280;64046;51.978;5.934;2022-11-13T00:42:12;102613.31;;;13.90;84.94
75359;BME280;64046;51.978;5.934;2022-11-13T00:45:00;102607.16;;;13.91;84.66
75359;BME280;64046;51.978;5.934;2022-11-13T00:47:47;102610.59;;;13.93;84.41
75359;BME280;64046;51.978;5.934;2022-11-13T00:50:37;102601.34;;;14.08;84.11
75359;BME280;64046;51.978;5.934;2022-11-13T00:53:25;102595.63;;;13.94;84.47
75359;BME280;64046;51.978;5.934;2022-11-13T00:56:13;102600.19;;;13.89;84.41
75359;BME280;64046;51.978;5.934;2022-11-13T00:59:00;102599.19;;;13.93;83.87
75359;BME280;64046;51.978;5.934;2022-11-13T01:01:48;102595.63;;;13.94;83.76
75359;BME280;64046;51.978;5.934;2022-11-13T01:04:36;102594.69;;;13.96;83.34
75359;BME280;64046;51.978;5.934;2022-11-13T01:07:26;102594.38;;;14.07;83.30
75359;BME280;64046;51.978;5.934;2022-11-13T01:10:14;102594.63;;;13.98;83.37
75359;BME280;64046;51.978;5.934;2022-11-13T01:13:02;102587.00;;;13.89;83.36
75359;BME280;64046;51.978;5.934;2022-11-13T01:15:49;102587.06;;;13.87;83.17
75359;BME280;64046;51.978;5.934;2022-11-13T01:18:37;102587.91;;;13.88;82.81
75359;BME280;64046;51.978;5.934;2022-11-13T01:21:26;102590.69;;;13.83;83.02
75359;BME280;64046;51.978;5.934;2022-11-13T01:24:17;102592.13;;;13.93;82.79
75359;BME280;64046;51.978;5.934;2022-11-13T01:27:04;102589.91;;;13.79;82.88
75359;BME280;64046;51.978;5.934;2022-11-13T01:29:52;102587.22;;;13.81;82.69
75359;BME280;64046;51.978;5.934;2022-11-13T01:32:40;102594.28;;;13.80;82.53
75359;BME280;64046;51.978;5.934;2022-11-13T01:35:28;102578.50;;;13.79;82.18
75359;BME280;64046;51.978;5.934;2022-11-13T01:38:15;102581.28;;;13.74;82.34
75359;BME280;64046;51.978;5.934;2022-11-13T01:41:08;102573.75;;;13.92;81.95
75359;BME280;64046;51.978;5.934;2022-11-13T01:43:59;102571.38;;;13.82;81.98
75359;BME280;64046;51.978;5.934;2022-11-13T01:46:48;102564.34;;;13.83;82.01
75359;BME280;64046;51.978;5.934;2022-11-13T01:49:39;102561.47;;;13.91;81.56
75359;BME280;64046;51.978;5.934;2022-11-13T01:52:30;102557.88;;;13.93;81.14
75359;BME280;64046;51.978;5.934;2022-11-13T01:55:19;102554.09;;;13.72;81.58
75359;BME280;64046;51.978;5.934;2022-11-13T01:58:10;102541.28;;;13.90;81.06
75359;BME280;64046;51.978;5.934;2022-11-13T02:00:59;102547.00;;;13.76;81.04
75359;BME280;64046;51.978;5.934;2022-11-13T02:03:47;102546.00;;;13.80;80.63
75359;BME280;64046;51.978;5.934;2022-11-13T02:06:39;102542.69;;;14.01;80.08
75359;BME280;64046;51.978;5.934;2022-11-13T02:09:30;102540.19;;;13.97;79.77
75359;BME280;64046;51.978;5.934;2022-11-13T02:12:24;102540.06;;;14.01;79.36
75359;BME280;64046;51.978;5.934;2022-11-13T02:15:18;102533.16;;;13.97;79.19
75359;BME280;64046;51.978;5.934;2022-11-13T02:18:07;102543.97;;;13.88;79.15
75359;BME280;64046;51.978;5.934;2022-11-13T02:21:00;102539.13;;;14.04;78.27
75359;BME280;64046;51.978;5.934;2022-11-13T02:23:58;102536.47;;;14.04;77.96
75359;BME280;64046;51.978;5.934;2022-11-13T02:26:49;102534.09;;;13.95;79.06
75359;BME280;64046;51.978;5.934;2022-11-13T02:29:38;102533.91;;;13.73;79.68
75359;BME280;64046;51.978;5.934;2022-11-13T02:32:26;102531.31;;;13.71;79.48
75359;BME280;64046;51.978;5.934;2022-11-13T02:35:15;102529.22;;;13.82;78.76
75359;BME280;64046;51.978;5.934;2022-11-13T02:38:05;102523.13;;;13.80;78.69
75359;BME280;64046;51.978;5.934;2022-11-13T02:40:52;102522.53;;;13.71;78.31
75359;BME280;64046;51.978;5.934;2022-11-13T02:43:42;102521.88;;;13.92;77.30
75359;BME280;64046;51.978;5.934;2022-11-13T02:46:30;102530.25;;;13.77;77.55
75359;BME280;64046;51.978;5.934;2022-11-13T02:49:17;102526.81;;;13.75;77.76
75359;BME280;64046;51.978;5.934;2022-11-13T02:52:05;102522.50;;;13.72;78.00
75359;BME280;64046;51.978;5.934;2022-11-13T02:54:53;102523.38;;;13.73;78.18
75359;BME280;64046;51.978;5.934;2022-11-13T02:57:41;102519.06;;;13.70;78.07
75359;BME280;64046;51.978;5.934;2022-11-13T03:00:31;102513.31;;;13.86;77.71
75359;BME280;64046;51.978;5.934;2022-11-13T03:03:19;102513.88;;;13.67;78.12
75359;BME280;64046;51.978;5.934;2022-11-13T03:06:06;102511.19;;;13.69;77.77
75359;BME280;64046;51.978;5.934;2022-11-13T03:08:54;102516.38;;;13.72;77.33
75359;BME280;64046;51.978;5.934;2022-11-13T03:11:42;102517.97;;;13.77;77.20
75359;BME280;64046;51.978;5.934;2022-11-13T03:14:30;102504.16;;;13.69;77.57
75359;BME280;64046;51.978;5.934;2022-11-13T03:17:20;102503.63;;;13.86;77.46
75359;BME280;64046;51.978;5.934;2022-11-13T03:20:08;102496.16;;;13.72;77.83
75359;BME280;64046;51.978;5.934;2022-11-13T03:22:56;102493.84;;;13.61;78.04
75359;BME280;64046;51.978;5.934;2022-11-13T03:25:44;102492.28;;;13.56;78.15
75359;BME280;64046;51.978;5.934;2022-11-13T03:28:32;102499.38;;;13.52;78.53
75359;BME280;64046;51.978;5.934;2022-11-13T03:31:19;102497.59;;;13.54;78.21
75359;BME280;64046;51.978;5.934;2022-11-13T03:34:10;102495.44;;;13.67;77.91
75359;BME280;64046;51.978;5.934;2022-11-13T03:36:57;102488.81;;;13.54;77.86
75359;BME280;64046;51.978;5.934;2022-11-13T03:39:45;102494.13;;;13.52;77.41
75359;BME280;64046;51.978;5.934;2022-11-13T03:42:32;102489.94;;;13.45;77.55
75359;BME280;64046;51.978;5.934;2022-11-13T03:45:20;102488.25;;;13.42;77.77
75359;BME280;64046;51.978;5.934;2022-11-13T03:48:08;102489.00;;;13.47;77.36
75359;BME280;64046;51.978;5.934;2022-11-13T03:50:58;102477.28;;;13.58;76.75
75359;BME280;64046;51.978;5.934;2022-11-13T03:53:46;102477.78;;;13.41;76.97
75359;BME280;64046;51.978;5.934;2022-11-13T03:56:34;102472.56;;;13.39;76.40
75359;BME280;64046;51.978;5.934;2022-11-13T03:59:21;102470.81;;;13.40;76.38
75359;BME280;64046;51.978;5.934;2022-11-13T04:02:09;102453.28;;;13.39;76.00
75359;BME280;64046;51.978;5.934;2022-11-13T04:04:57;102461.06;;;13.42;75.65
75359;BME280;64046;51.978;5.934;2022-11-13T04:07:47;102461.38;;;13.61;75.00
75359;BME280;64046;51.978;5.934;2022-11-13T04:10:35;102460.25;;;13.40;75.49
75359;BME280;64046;51.978;5.934;2022-11-13T04:13:23;102456.69;;;13.41;75.55
75359;BME280;64046;51.978;5.934;2022-11-13T04:16:11;102453.38;;;13.34;75.97
75359;BME280;64046;51.978;5.934;2022-11-13T04:18:58;102455.31;;;13.27;76.35
75359;BME280;64046;51.978;5.934;2022-11-13T04:21:46;102444.09;;;13.21;76.61
75359;BME280;64046;51.978;5.934;2022-11-13T04:24:36;102434.31;;;13.26;76.76
75359;BME280;64046;51.978;5.934;2022-11-13T04:27:24;102438.56;;;13.00;77.14
75359;BME280;64046;51.978;5.934;2022-11-13T04:30:12;102434.25;;;12.97;77.29
75359;BME280;64046;51.978;5.934;2022-11-13T04:33:00;102422.06;;;12.93;77.20
75359;BME280;64046;51.978;5.934;2022-11-13T04:35:48;102426.44;;;12.94;76.99
75359;BME280;64046;51.978;5.934;2022-11-13T04:38:35;102427.38;;;12.92;77.09
75359;BME280;64046;51.978;5.934;2022-11-13T04:41:26;102423.53;;;13.04;77.04
75359;BME280;64046;51.978;5.934;2022-11-13T04:44:26;102429.34;;;12.84;77.33
75359;BME280;64046;51.978;5.934;2022-11-13T04:47:14;102431.19;;;12.81;77.48
75359;BME280;64046;51.978;5.934;2022-11-13T04:50:02;102432.91;;;12.83;77.22
75359;BME280;64046;51.978;5.934;2022-11-13T04:52:49;102436.19;;;12.58;79.04
75359;BME280;64046;51.978;5.934;2022-11-13T04:55:36;102439.88;;;12.51;79.39
75359;BME280;64046;51.978;5.934;2022-11-13T04:58:27;102426.50;;;12.60;79.39
75359;BME280;64046;51.978;5.934;2022-11-13T05:01:14;102427.22;;;12.34;80.00
75359;BME280;64046;51.978;5.934;2022-11-13T05:04:02;102416.81;;;12.27;80.09
75359;BME280;64046;51.978;5.934;2022-11-13T05:06:50;102422.22;;;12.23;80.35
75359;BME280;64046;51.978;5.934;2022-11-13T05:09:38;102418.78;;;12.21;80.64
75359;BME280;64046;51.978;5.934;2022-11-13T05:12:26;102415.44;;;12.14;80.76
75359;BME280;64046;51.978;5.934;2022-11-13T05:15:16;102419.50;;;12.26;80.89
75359;BME280;64046;51.978;5.934;2022-11-13T05:18:04;102412.00;;;12.10;81.16
75359;BME280;64046;51.978;5.934;2022-11-13T05:20:51;102409.53;;;12.04;81.22
75359;BME280;64046;51.978;5.934;2022-11-13T05:23:39;102411.41;;;11.99;81.47
75359;BME280;64046;51.978;5.934;2022-11-13T05:26:27;102405.38;;;11.96;81.63
75359;BME280;64046;51.978;5.934;2022-11-13T05:29:15;102407.06;;;11.98;81.52
75359;BME280;64046;51.978;5.934;2022-11-13T05:32:05;102404.88;;;12.16;80.67
75359;BME280;64046;51.978;5.934;2022-11-13T05:34:53;102407.03;;;12.00;80.79
75359;BME280;64046;51.978;5.934;2022-11-13T05:37:40;102396.59;;;11.97;80.65
75359;BME280;64046;51.978;5.934;2022-11-13T05:40:28;102400.88;;;11.99;80.36
75359;BME280;64046;51.978;5.934;2022-11-13T05:43:16;102402.59;;;12.02;80.25
75359;BME280;64046;51.978;5.934;2022-11-13T05:46:05;102391.84;;;12.11;79.92
75359;BME280;64046;51.978;5.934;2022-11-13T05:48:58;102395.03;;;12.24;79.10
75359;BME280;64046;51.978;5.934;2022-11-13T05:51:46;102392.78;;;12.08;79.29
75359;BME280;64046;51.978;5.934;2022-11-13T05:54:34;102391.94;;;12.08;79.27
75359;BME280;64046;51.978;5.934;2022-11-13T05:57:21;102385.75;;;12.09;79.25
75359;BME280;64046;51.978;5.934;2022-11-13T06:00:10;102386.56;;;12.13;79.33
75359;BME280;64046;51.978;5.934;2022-11-13T06:02:59;102381.25;;;12.14;79.13
75359;BME280;64046;51.978;5.934;2022-11-13T06:05:49;102382.03;;;12.19;78.98
75359;BME280;64046;51.978;5.934;2022-11-13T06:08:37;102377.06;;;12.07;79.42
75359;BME280;64046;51.978;5.934;2022-11-13T06:11:27;102379.78;;;12.04;79.81
75359;BME280;64046;51.978;5.934;2022-11-13T06:14:14;102371.31;;;11.91;80.00
75359;BME280;64046;51.978;5.934;2022-11-13T06:17:02;102368.81;;;11.85;80.06
75359;BME280;64046;51.978;5.934;2022-11-13T06:19:50;102377.69;;;11.81;79.97
75359;BME280;64046;51.978;5.934;2022-11-13T06:22:40;102369.44;;;11.96;79.49
75359;BME280;64046;51.978;5.934;2022-11-13T06:25:28;102368.03;;;11.81;79.63
75359;BME280;64046;51.978;5.934;2022-11-13T06:28:15;102361.91;;;11.82;79.45
75359;BME280;64046;51.978;5.934;2022-11-13T06:31:04;102361.69;;;11.90;79.02
75359;BME280;64046;51.978;5.934;2022-11-13T06:33:52;102363.56;;;11.86;78.74
75359;BME280;64046;51.978;5.934;2022-11-13T06:36:40;102361.84;;;11.84;78.71
75359;BME280;64046;51.978;5.934;2022-11-13T06:39:30;102365.84;;;12.00;78.42
75359;BME280;64046;51.978;5.934;2022-11-13T06:42:18;102371.44;;;11.86;78.46
75359;BME280;64046;51.978;5.934;2022-11-13T06:45:06;102369.41;;;11.98;78.25
75359;BME280;64046;51.978;5.934;2022-11-13T06:47:54;102364.44;;;11.85;78.10
75359;BME280;64046;51.978;5.934;2022-11-13T06:50:42;102365.28;;;11.86;78.16
75359;BME280;64046;51.978;5.934;2022-11-13T06:53:30;102363.47;;;11.89;77.89
75359;BME280;64046;51.978;5.934;2022-11-13T06:56:20;102365.84;;;12.00;77.58
75359;BME280;64046;51.978;5.934;2022-11-13T06:59:08;102361.84;;;11.84;77.78
75359;BME280;64046;51.978;5.934;2022-11-13T07:01:55;102364.47;;;11.84;77.65
75359;BME280;64046;51.978;5.934;2022-11-13T07:04:43;102362.72;;;11.84;77.61
75359;BME280;64046;51.978;5.934;2022-11-13T07:07:31;102362.59;;;11.89;77.32
75359;BME280;64046;51.978;5.934;2022-11-13T07:10:25;102361.66;;;11.91;76.91
75359;BME280;64046;51.978;5.934;2022-11-13T07:13:15;102361.31;;;12.07;76.39
75359;BME280;64046;51.978;5.934;2022-11-13T07:16:04;102364.00;;;12.04;76.43
75359;BME280;64046;51.978;5.934;2022-11-13T07:18:52;102367.41;;;12.07;76.09
75359;BME280;64046;51.978;5.934;2022-11-13T07:21:40;102364.81;;;12.06;75.58
75359;BME280;64046;51.978;5.934;2022-11-13T07:24:28;102359.66;;;12.03;75.33
75359;BME280;64046;51.978;5.934;2022-11-13T07:27:16;102364.91;;;12.03;75.54
75359;BME280;64046;51.978;5.934;2022-11-13T07:30:07;102353.06;;;12.21;74.97
75359;BME280;64046;51.978;5.934;2022-11-13T07:32:55;102366.59;;;12.05;75.09
75359;BME280;64046;51.978;5.934;2022-11-13T07:35:42;102357.81;;;12.06;74.99
75359;BME280;64046;51.978;5.934;2022-11-13T07:38:30;102362.88;;;12.14;74.98
75359;BME280;64046;51.978;5.934;2022-11-13T07:41:18;102354.22;;;12.09;74.68
75359;BME280;64046;51.978;5.934;2022-11-13T07:44:05;102359.19;;;12.21;74.48
75359;BME280;64046;51.978;5.934;2022-11-13T07:46:56;102349.09;;;12.37;73.83
75359;BME280;64046;51.978;5.934;2022-11-13T07:49:44;102353.66;;;12.31;73.65
75359;BME280;64046;51.978;5.934;2022-11-13T07:52:31;102343.09;;;12.32;73.46
75359;BME280;64046;51.978;5.934;2022-11-13T07:55:19;102341.34;;;12.33;73.24
75359;BME280;64046;51.978;5.934;2022-11-13T07:58:08;102338.28;;;12.50;72.67
75359;BME280;64046;51.978;5.934;2022-11-13T08:01:00;102341.41;;;12.62;72.33
75359;BME280;64046;51.978;5.934;2022-11-13T08:03:51;102345.69;;;12.65;72.25
75359;BME280;64046;51.978;5.934;2022-11-13T08:06:39;102336.34;;;12.55;72.15
75359;BME280;64046;51.978;5.934;2022-11-13T08:09:27;102349.41;;;12.59;71.74
75359;BME280;64046;51.978;5.934;2022-11-13T08:12:14;102337.84;;;12.63;71.39
75359;BME280;64046;51.978;5.934;2022-11-13T08:15:02;102336.66;;;12.75;70.91
75359;BME280;64046;51.978;5.934;2022-11-13T08:17:53;102332.56;;;12.95;70.41
75359;BME280;64046;51.978;5.934;2022-11-13T08:20:43;102330.63;;;13.02;70.26
75359;BME280;64046;51.978;5.934;2022-11-13T08:23:31;102333.41;;;12.97;70.04
75359;BME280;64046;51.978;5.934;2022-11-13T08:26:18;102324.47;;;13.03;69.48
75359;BME280;64046;51.978;5.934;2022-11-13T08:29:06;102320.78;;;13.08;69.16
75359;BME280;64046;51.978;5.934;2022-11-13T08:31:53;102326.63;;;13.18;69.04
75359;BME280;64046;51.978;5.934;2022-11-13T08:34:41;102325.47;;;13.27;68.78
75359;BME280;64046;51.978;5.934;2022-11-13T08:37:31;102311.59;;;13.50;68.08
75359;BME280;64046;51.978;5.934;2022-11-13T08:40:19;102314.47;;;13.42;68.01
75359;BME280;64046;51.978;5.934;2022-11-13T08:43:07;102308.81;;;13.55;67.73
75359;BME280;64046;51.978;5.934;2022-11-13T08:45:55;102311.34;;;13.58;67.34
75359;BME280;64046;51.978;5.934;2022-11-13T08:48:43;102300.56;;;13.65;67.11
75359;BME280;64046;51.978;5.934;2022-11-13T08:51:30;102308.94;;;13.77;66.52
75359;BME280;64046;51.978;5.934;2022-11-13T08:54:21;102296.88;;;13.96;66.25
75359;BME280;64046;51.978;5.934;2022-11-13T08:57:09;102300.56;;;13.91;66.12
75359;BME280;64046;51.978;5.934;2022-11-13T08:59:56;102294.22;;;13.96;65.91
75359;BME280;64046;51.978;5.934;2022-11-13T09:02:45;102295.84;;;14.00;66.00
75359;BME280;64046;51.978;5.934;2022-11-13T09:05:32;102295.56;;;14.08;65.88
75359;BME280;64046;51.978;5.934;2022-11-13T09:08:20;102292.50;;;14.21;65.76
75359;BME280;64046;51.978;5.934;2022-11-13T09:11:10;102297.06;;;14.41;65.53
75359;BME280;64046;51.978;5.934;2022-11-13T09:14:02;102298.25;;;14.32;65.78
75359;BME280;64046;51.978;5.934;2022-11-13T09:16:50;102296.16;;;14.42;65.80
75359;BME280;64046;51.978;5.934;2022-11-13T09:19:38;102288.06;;;14.46;65.30
75359;BME280;64046;51.978;5.934;2022-11-13T09:22:25;102291.53;;;14.47;64.94
75359;BME280;64046;51.978;5.934;2022-11-13T09:25:13;102287.81;;;14.52;64.58
75359;BME280;64046;51.978;5.934;2022-11-13T09:28:04;102279.25;;;14.71;64.32
75359;BME280;64046;51.978;5.934;2022-11-13T09:30:53;102277.81;;;14.62;63.77
75359;BME280;64046;51.978;5.934;2022-11-13T09:33:41;102273.13;;;14.70;63.62
75359;BME280;64046;51.978;5.934;2022-11-13T09:36:29;102274.66;;;14.76;63.46
75359;BME280;64046;51.978;5.934;2022-11-13T09:39:16;102278.97;;;14.79;63.24
75359;BME280;64046;51.978;5.934;2022-11-13T09:42:11;102280.63;;;15.03;62.90
75359;BME280;64046;51.978;5.934;2022-11-13T09:45:06;102273.44;;;15.07;62.95
75359;BME280;64046;51.978;5.934;2022-11-13T09:47:56;102278.66;;;15.09;62.98
75359;BME280;64046;51.978;5.934;2022-11-13T09:50:45;102281.75;;;14.98;62.61
75359;BME280;64046;51.978;5.934;2022-11-13T09:53:35;102276.72;;;15.14;62.78
75359;BME280;64046;51.978;5.934;2022-11-13T09:56:27;102284.31;;;15.21;62.69
75359;BME280;64046;51.978;5.934;2022-11-13T09:59:23;102279.50;;;15.31;62.52
75359;BME280;64046;51.978;5.934;2022-11-13T10:02:20;102281.78;;;15.40;62.32
75359;BME280;64046;51.978;5.934;2022-11-13T10:05:15;102282.56;;;15.43;61.99
75359;BME280;64046;51.978;5.934;2022-11-13T10:08:13;102282.28;;;15.50;61.57
75359;BME280;64046;51.978;5.934;2022-11-13T10:11:09;102283.84;;;15.54;61.54
75359;BME280;64046;51.978;5.934;2022-11-13T10:14:03;102275.97;;;15.53;61.57
75359;BME280;64046;51.978;5.934;2022-11-13T10:16:59;102274.63;;;15.65;61.28
75359;BME280;64046;51.978;5.934;2022-11-13T10:19:55;102265.13;;;15.81;60.29
75359;BME280;64046;51.978;5.934;2022-11-13T10:22:48;102256.03;;;15.88;60.04
75359;BME280;64046;51.978;5.934;2022-11-13T10:25:37;102256.16;;;15.85;60.19
75359;BME280;64046;51.978;5.934;2022-11-13T10:28:26;102256.16;;;15.85;59.91
75359;BME280;64046;51.978;5.934;2022-11-13T10:31:13;102252.59;;;15.86;59.37
75359;BME280;64046;51.978;5.934;2022-11-13T10:34:01;102248.81;;;15.92;59.67
75359;BME280;64046;51.978;5.934;2022-11-13T10:36:59;102244.16;;;16.18;58.77
75359;BME280;64046;51.978;5.934;2022-11-13T10:39:49;102244.91;;;16.01;59.24
75359;BME280;64046;51.978;5.934;2022-11-13T10:42:39;102244.34;;;16.13;58.50
75359;BME280;64046;51.978;5.934;2022-11-13T10:45:28;102242.00;;;16.07;58.18
75359;BME280;64046;51.978;5.934;2022-11-13T10:48:20;102234.81;;;16.30;57.57
75359;BME280;64046;51.978;5.934;2022-11-13T10:51:21;102230.59;;;16.44;57.06
75359;BME280;64046;51.978;5.934;2022-11-13T10:54:26;102236.38;;;16.53;56.88
75359;BME280;64046;51.978;5.934;2022-11-13T10:57:22;102223.00;;;16.56;57.17
75359;BME280;64046;51.978;5.934;2022-11-13T11:00:23;102224.00;;;16.72;56.65
75359;BME280;64046;51.978;5.934;2022-11-13T11:03:14;102222.59;;;16.65;57.30
75359;BME280;64046;51.978;5.934;2022-11-13T11:06:03;102230.31;;;16.70;57.07
75359;BME280;64046;51.978;5.934;2022-11-13T11:08:51;102216.72;;;16.58;56.71
75359;BME280;64046;51.978;5.934;2022-11-13T11:11:45;102216.75;;;16.76;56.39
75359;BME280;64046;51.978;5.934;2022-11-13T11:15:01;102212.97;;;16.82;56.33
75359;BME280;64046;51.978;5.934;2022-11-13T11:17:55;102207.59;;;16.83;56.54
75359;BME280;64046;51.978;5.934;2022-11-13T11:20:47;102196.69;;;16.91;56.27
75359;BME280;64046;51.978;5.934;2022-11-13T11:23:41;102205.22;;;16.96;56.44
75359;BME280;64046;51.978;5.934;2022-11-13T11:26:34;102200.00;;;16.94;56.56
75359;BME280;64046;51.978;5.934;2022-11-13T11:29:31;102196.94;;;17.04;56.66
75359;BME280;64046;51.978;5.934;2022-11-13T11:32:23;102187.94;;;17.06;56.90
75359;BME280;64046;51.978;5.934;2022-11-13T11:35:18;102183.53;;;17.07;57.09
75359;BME280;64046;51.978;5.934;2022-11-13T11:38:12;102177.91;;;17.13;57.08
75359;BME280;64046;51.978;5.934;2022-11-13T11:41:11;102174.03;;;17.20;57.21
75359;BME280;64046;51.978;5.934;2022-11-13T11:44:04;102170.38;;;17.23;57.89
75359;BME280;64046;51.978;5.934;2022-11-13T11:47:01;102173.50;;;17.31;57.95
75359;BME280;64046;51.978;5.934;2022-11-13T11:49:48;102171.47;;;17.19;58.10
75359;BME280;64046;51.978;5.934;2022-11-13T11:52:48;102174.41;;;17.47;58.08
75359;BME280;64046;51.978;5.934;2022-11-13T11:55:52;102159.97;;;17.53;58.38
75359;BME280;64046;51.978;5.934;2022-11-13T11:58:55;102170.56;;;17.53;58.62
75359;BME280;64046;51.978;5.934;2022-11-13T12:02:03;102164.09;;;17.59;58.58
75359;BME280;64046;51.978;5.934;2022-11-13T12:05:08;102171.03;;;17.61;58.86
75359;BME280;64046;51.978;5.934;2022-11-13T12:08:06;102155.13;;;17.61;58.94
75359;BME280;64046;51.978;5.934;2022-11-13T12:11:00;102155.81;;;17.65;58.95
75359;BME280;64046;51.978;5.934;2022-11-13T12:13:57;102147.72;;;17.68;58.91
75359;BME280;64046;51.978;5.934;2022-11-13T12:17:11;102143.47;;;17.81;58.38
75359;BME280;64046;51.978;5.934;2022-11-13T12:20:08;102137.53;;;17.76;58.47
75359;BME280;64046;51.978;5.934;2022-11-13T12:23:14;102127.56;;;17.81;58.24
75359;BME280;64046;51.978;5.934;2022-11-13T12:26:12;102132.78;;;17.83;57.98
75359;BME280;64046;51.978;5.934;2022-11-13T12:29:10;102122.78;;;17.88;58.15
75359;BME280;64046;51.978;5.934;2022-11-13T12:32:10;102116.16;;;17.97;58.37
75359;BME280;64046;51.978;5.934;2022-11-13T12:35:08;102116.66;;;18.04;57.74
75359;BME280;64046;51.978;5.934;2022-11-13T12:38:02;102105.03;;;18.06;57.41
75359;BME280;64046;51.978;5.934;2022-11-13T12:40:59;102108.88;;;18.16;57.38
75359;BME280;64046;51.978;5.934;2022-11-13T12:44:05;102104.59;;;18.30;56.13
75359;BME280;64046;51.978;5.934;2022-11-13T12:46:59;102103.91;;;18.26;56.20
75359;BME280;64046;51.978;5.934;2022-11-13T12:49:57;102106.06;;;18.36;55.52
75359;BME280;64046;51.978;5.934;2022-11-13T12:52:59;102102.13;;;18.43;54.79
75359;BME280;64046;51.978;5.934;2022-11-13T12:55:55;102097.75;;;18.42;54.80
75359;BME280;64046;51.978;5.934;2022-11-13T12:58:56;102092.69;;;18.53;53.96
75359;BME280;64046;51.978;5.934;2022-11-13T13:01:46;102080.78;;;18.44;54.48
75359;BME280;64046;51.978;5.934;2022-11-13T13:04:48;102079.22;;;18.56;53.91
75359;BME280;64046;51.978;5.934;2022-11-13T13:07:51;102076.38;;;18.59;53.92
75359;BME280;64046;51.978;5.934;2022-11-13T13:10:53;102060.28;;;18.62;53.56
75359;BME280;64046;51.978;5.934;2022-11-13T13:13:48;102058.72;;;18.58;53.29
75359;BME280;64046;51.978;5.934;2022-11-13T13:16:38;102062.88;;;18.48;53.29
75359;BME280;64046;51.978;5.934;2022-11-13T13:19:27;102045.31;;;18.61;52.76
75359;BME280;64046;51.978;5.934;2022-11-13T13:22:25;102038.03;;;18.79;52.33
75359;BME280;64046;51.978;5.934;2022-11-13T13:25:24;102045.66;;;18.85;51.56
75359;BME280;64046;51.978;5.934;2022-11-13T13:28:20;102033.22;;;18.86;51.22
75359;BME280;64046;51.978;5.934;2022-11-13T13:31:23;102033.22;;;18.86;51.14
75359;BME280;64046;51.978;5.934;2022-11-13T13:34:24;102020.72;;;18.88;50.74
75359;BME280;64046;51.978;5.934;2022-11-13T13:37:21;102012.84;;;18.87;50.23
75359;BME280;64046;51.978;5.934;2022-11-13T13:40:23;102000.34;;;18.89;50.17
75359;BME280;64046;51.978;5.934;2022-11-13T13:43:28;101988.75;;;18.90;49.54
75359;BME280;64046;51.978;5.934;2022-11-13T13:46:21;101984.84;;;18.81;49.80
75359;BME280;64046;51.978;5.934;2022-11-13T13:49:13;101981.22;;;18.82;50.04
75359;BME280;64046;51.978;5.934;2022-11-13T13:52:03;101974.88;;;18.70;50.03
75359;BME280;64046;51.978;5.934;2022-11-13T13:54:51;101969.56;;;18.70;49.61
75359;BME280;64046;51.978;5.934;2022-11-13T13:57:40;101967.47;;;18.75;48.79
75359;BME280;64046;51.978;5.934;2022-11-13T14:00:31;101973.69;;;18.90;48.36
75359;BME280;64046;51.978;5.934;2022-11-13T14:03:20;101963.38;;;18.84;48.42
75359;BME280;64046;51.978;5.934;2022-11-13T14:06:18;101964.09;;;18.88;48.13
75359;BME280;64046;51.978;5.934;2022-11-13T14:09:07;101958.84;;;18.86;48.50
75359;BME280;64046;51.978;5.934;2022-11-13T14:11:57;101962.38;;;18.87;48.18
75359;BME280;64046;51.978;5.934;2022-11-13T14:14:44;101964.47;;;18.81;47.93
75359;BME280;64046;51.978;5.934;2022-11-13T14:17:35;101960.03;;;18.96;47.27
75359;BME280;64046;51.978;5.934;2022-11-13T14:20:23;101959.91;;;18.83;47.05
75359;BME280;64046;51.978;5.934;2022-11-13T14:23:14;101961.94;;;18.94;46.87
75359;BME280;64046;51.978;5.934;2022-11-13T14:26:04;101959.63;;;18.88;46.86
75359;BME280;64046;51.978;5.934;2022-11-13T14:28:55;101964.00;;;18.89;46.70
75359;BME280;64046;51.978;5.934;2022-11-13T14:31:44;101962.06;;;18.77;46.60
75359;BME280;64046;51.978;5.934;2022-11-13T14:34:34;101963.63;;;18.95;46.62
75359;BME280;64046;51.978;5.934;2022-11-13T14:37:24;101955.28;;;18.87;46.75
75359;BME280;64046;51.978;5.934;2022-11-13T14:40:19;101954.81;;;18.95;46.62
75359;BME280;64046;51.978;5.934;2022-11-13T14:43:15;101949.59;;;18.93;46.71
75359;BME280;64046;51.978;5.934;2022-11-13T14:46:05;101945.00;;;18.81;46.98
75359;BME280;64046;51.978;5.934;2022-11-13T14:49:13;101944.56;;;18.89;47.54
75359;BME280;64046;51.978;5.934;2022-11-13T14:52:04;101941.50;;;18.80;47.64